Attica, NY (14011)

8:45 PM EDT on October 21, 2014 (GMT -0400)
South of village | Change Station
CLOSE
Current Station
Personal Weather Station
Location: Attica, NY
Elevation: 1007 ft
Nearby Weather Stations

Elev 1007 ft 42.84 °N, 78.29 °W | Updated 18 seconds ago

Overcast
Overcast
41.1 °F
Feels Like 39 °F
N
3.5
Wind Variable Wind from NW
Gusts 3.5 mph

Today
High -- | Low -- °F
--% Chance of Precip.
Yesterday
High -- | Low -- °F
Precip. -- in
7:33 AM 6:21 PM
Waning Crescent, 4% visible
Pressure 30.03 in
Visibility 2.0 miles
Clouds Overcast 600 ft
Windchill 39 °F
Dew Point 41 °F
Humidity 98%
Rainfall 0.37 in
Snow Depth Not available.
UV 0 out of 12
Pollen .30 out of 12
PM2.5 Good
Flu Activity Sporadic
SPECI KBUF 220021Z 02009G17KT 2SM -DZ BR OVC006 08/07 A3003 RMK AO2 CIG 005V010 P0000 T00780067

More Conditions Fewer Conditions

Pressure 30.03 in
Visibility 2.0 miles
Clouds Overcast 600 ft
Windchill 39 °F
Dew Point 41 °F
Humidity 98%
Rainfall 0.37 in
Snow Depth Not available.
UV 0 out of 12
Pollen .30 out of 12
PM2.5 Good
Flu Activity Sporadic
SPECI KBUF 220021Z 02009G17KT 2SM -DZ BR OVC006 08/07 A3003 RMK AO2 CIG 005V010 P0000 T00780067

More Conditions Fewer Conditions

10-Day Weather Forecast

Almanac

Astronomy

Oct. 21, 2014 Rise Set
Actual Time 7:33 AM EDT 6:21 PM EDT
Civil Twilight 7:04 AM EDT 6:49 PM EDT
Nautical Twilight 6:31 AM EDT 7:22 PM EDT
Astronomical Twilight 5:59 AM EDT 7:55 PM EDT
Moon 5:12 AM EDT (10/21) 5:16 PM EDT (10/21)
Length of Visible Light 11h 45m
Length of Day
10h 47m
Tomorrow will be 2m 44s shorter.
Waning Crescent, 4% of the Moon is Illuminated
Today
Waning Crescent
Oct 23
New
Oct 30
First Quarter
Nov 6
Full
Nov 14
Last Quarter

Today's Extremes

State Highs State Lows

Community

WunderPhotos

Upload Photos

1,763,837 photos uploaded!

Nearby

Air Quality

  Air Quality AQ Index Pollutant
Yesterday Good
PM2.5
Yesterday Good
OZONE
Current Good
PM2.5
Tuesday Good
PM2.5
Wednesday Good
PM2.5

Snow Depth

Station Depth Elevation
No new snow has been reported.

Earthquake Activity

City Distance Mag. Time & Date
No recent earthquake activity has been reported nearby.
Minimum magnitude displayed is 2.5.

Coastal Water Temperatures

Place Temperature
Buffalo, NY 57.0 °F

Nearby Weather Stations